createdAt,value
2023-01-22T00:03:21.566Z,4.95
2023-01-22T00:07:39.310Z,5.00
2023-01-22T00:11:52.584Z,6.47
2023-01-22T00:16:05.417Z,4.97
2023-01-22T00:20:27.868Z,5.65
2023-01-22T00:24:43.061Z,4.57
2023-01-22T00:28:55.866Z,5.10
2023-01-22T00:33:09.785Z,4.82
2023-01-22T00:37:22.319Z,4.65
2023-01-22T00:41:35.146Z,3.75
2023-01-22T00:45:47.834Z,6.18
2023-01-22T00:50:00.585Z,5.13
2023-01-22T00:54:13.254Z,3.70
2023-01-22T00:58:27.113Z,4.63
2023-01-22T01:02:59.534Z,6.20
2023-01-22T01:07:11.983Z,5.43
2023-01-22T01:11:26.912Z,5.00
2023-01-22T01:15:39.486Z,5.38
2023-01-22T01:19:53.300Z,5.35
2023-01-22T01:24:06.292Z,5.45
2023-01-22T01:28:19.648Z,5.78
2023-01-22T01:32:33.706Z,5.70
2023-01-22T01:36:49.187Z,6.28
2023-01-22T01:41:02.141Z,5.15
2023-01-22T01:45:35.063Z,6.15
2023-01-22T01:49:53.717Z,5.80
2023-01-22T01:54:15.014Z,5.60
2023-01-22T01:58:32.097Z,5.38
2023-01-22T02:02:45.146Z,5.07
2023-01-22T02:06:57.970Z,5.85
2023-01-22T02:11:12.030Z,5.05
2023-01-22T02:15:25.069Z,5.10
2023-01-22T02:19:37.905Z,5.38
2023-01-22T02:23:50.443Z,5.60
2023-01-22T02:28:03.264Z,4.78
2023-01-22T02:32:16.043Z,5.43
2023-01-22T02:36:30.543Z,5.05
2023-01-22T02:40:53.020Z,5.28
2023-01-22T02:45:06.061Z,6.03
2023-01-22T02:49:26.759Z,3.72
2023-01-22T02:53:39.542Z,5.30
2023-01-22T02:57:52.214Z,5.28
2023-01-22T03:02:04.845Z,6.10
2023-01-22T03:06:22.333Z,5.10
2023-01-22T03:10:35.085Z,5.32
2023-01-22T03:15:05.995Z,5.45
2023-01-22T03:19:39.119Z,5.65
2023-01-22T03:23:54.854Z,5.50
2023-01-22T03:28:20.261Z,5.22
2023-01-22T03:32:32.910Z,5.28
2023-01-22T03:36:45.801Z,5.28
2023-01-22T03:41:08.259Z,4.60
2023-01-22T03:45:20.754Z,6.25
2023-01-22T03:49:33.253Z,5.15
2023-01-22T03:53:46.974Z,6.53
2023-01-22T03:57:59.655Z,6.53
2023-01-22T04:02:16.738Z,5.18
2023-01-22T04:06:31.480Z,5.00
2023-01-22T04:10:44.449Z,5.25
2023-01-22T04:14:56.857Z,6.47
2023-01-22T04:19:11.057Z,6.18
2023-01-22T04:23:25.733Z,5.15
2023-01-22T04:27:38.673Z,6.72
2023-01-22T04:31:51.199Z,5.93
2023-01-22T04:36:03.690Z,6.40
2023-01-22T04:40:17.104Z,5.88
2023-01-22T04:44:29.759Z,6.53
2023-01-22T04:48:42.201Z,6.18
2023-01-22T04:52:56.555Z,6.57
2023-01-22T04:57:09.341Z,6.63
2023-01-22T05:01:21.884Z,5.60
2023-01-22T05:05:34.865Z,6.32
2023-01-22T05:09:47.566Z,6.20
2023-01-22T05:14:00.109Z,5.70
2023-01-22T05:18:13.005Z,6.07
2023-01-22T05:22:25.461Z,6.78
2023-01-22T05:26:38.109Z,6.80
2023-01-22T05:30:50.663Z,5.75
2023-01-22T05:35:10.072Z,6.25
2023-01-22T05:39:24.138Z,6.13
2023-01-22T05:43:40.598Z,7.25
2023-01-22T05:47:56.160Z,6.68
2023-01-22T05:52:11.668Z,6.20
2023-01-22T05:56:24.213Z,5.53
2023-01-22T06:00:37.173Z,5.88
2023-01-22T06:04:49.605Z,5.75
2023-01-22T06:09:02.056Z,4.88
2023-01-22T06:13:14.508Z,4.38
2023-01-22T06:17:27.011Z,4.95
2023-01-22T06:21:49.438Z,5.50
2023-01-22T06:26:03.828Z,4.03
2023-01-22T06:30:26.441Z,4.20
2023-01-22T06:34:39.973Z,3.88
2023-01-22T06:38:52.514Z,6.35
2023-01-22T06:43:15.142Z,4.68
2023-01-22T06:47:28.035Z,4.40
2023-01-22T06:51:41.825Z,5.25
2023-01-22T06:55:55.027Z,3.80
2023-01-22T07:00:08.932Z,4.07
2023-01-22T07:04:22.253Z,4.10
2023-01-22T07:08:35.025Z,4.70
2023-01-22T07:12:47.512Z,3.90
2023-01-22T07:17:00.375Z,4.85
2023-01-22T07:21:13.884Z,4.70
2023-01-22T07:25:28.092Z,5.80
2023-01-22T07:29:40.647Z,5.25
2023-01-22T07:33:53.838Z,5.43
2023-01-22T07:38:06.828Z,5.10
2023-01-22T07:42:19.282Z,5.57
2023-01-22T07:46:31.775Z,6.93
2023-01-22T07:50:44.277Z,6.30
2023-01-22T07:54:56.826Z,7.93
2023-01-22T07:59:09.300Z,8.43
2023-01-22T08:03:34.917Z,15.77
2023-01-22T08:07:47.638Z,12.93
2023-01-22T08:12:00.258Z,8.10
2023-01-22T08:16:24.019Z,7.47
2023-01-22T08:20:36.490Z,6.25
2023-01-22T08:24:48.984Z,9.95
2023-01-22T08:29:05.339Z,5.50
2023-01-22T08:33:19.923Z,6.32
2023-01-22T08:37:32.380Z,7.45
2023-01-22T08:41:58.410Z,8.82
2023-01-22T08:46:20.472Z,7.70
2023-01-22T08:50:32.919Z,5.88
2023-01-22T08:54:45.551Z,9.23
2023-01-22T08:59:00.880Z,8.30
2023-01-22T09:03:19.876Z,8.15
2023-01-22T09:07:32.364Z,8.73
2023-01-22T09:11:49.516Z,6.97
2023-01-22T09:16:02.100Z,7.78
2023-01-22T09:20:14.610Z,7.40
2023-01-22T09:24:37.053Z,8.25
2023-01-22T09:28:58.891Z,6.13
2023-01-22T09:33:21.326Z,5.30
2023-01-22T09:37:33.767Z,6.25
2023-01-22T09:41:53.069Z,5.55
2023-01-22T09:50:26.758Z,7.55
2023-01-22T09:54:39.647Z,5.30
2023-01-22T09:58:52.823Z,8.18
2023-01-22T10:03:14.771Z,6.45
2023-01-22T10:07:41.391Z,6.43
2023-01-22T10:11:56.192Z,6.60
2023-01-22T10:16:09.229Z,6.72
2023-01-22T10:20:22.867Z,6.10
2023-01-22T10:24:35.325Z,7.70
2023-01-22T10:29:04.136Z,6.47
2023-01-22T10:33:22.054Z,8.10
2023-01-22T10:37:47.387Z,10.32
2023-01-22T10:42:03.269Z,9.13
2023-01-22T10:46:24.805Z,9.05
2023-01-22T10:50:37.413Z,6.93
2023-01-22T10:54:57.496Z,8.15
2023-01-22T10:59:27.839Z,5.30
2023-01-22T11:03:40.855Z,5.65
2023-01-22T11:08:07.289Z,5.43
2023-01-22T11:12:27.438Z,6.93
2023-01-22T11:16:41.842Z,7.75
2023-01-22T11:20:57.256Z,6.28
2023-01-22T11:25:13.277Z,5.65
2023-01-22T11:29:36.589Z,6.63
2023-01-22T11:34:26.780Z,6.18
2023-01-22T11:39:02.324Z,6.20
2023-01-22T11:43:26.727Z,6.35
2023-01-22T11:47:45.052Z,5.57
2023-01-22T11:52:31.741Z,4.68
2023-01-22T11:56:50.516Z,5.68
2023-01-22T12:01:19.574Z,5.45
2023-01-22T12:05:57.750Z,5.93
2023-01-22T12:10:41.956Z,6.95
2023-01-22T12:15:07.080Z,4.70
2023-01-22T12:19:34.558Z,5.07
2023-01-22T12:24:23.140Z,4.95
2023-01-22T12:28:50.834Z,4.43
2023-01-22T12:33:06.572Z,5.18
2023-01-22T12:37:24.701Z,7.00
2023-01-22T12:41:58.445Z,6.80
2023-01-22T12:46:40.070Z,5.47
2023-01-22T12:50:56.540Z,5.93
2023-01-22T12:55:43.955Z,6.55
2023-01-22T12:59:58.390Z,6.72
2023-01-22T13:04:13.452Z,6.30
2023-01-22T13:08:40.369Z,5.40
2023-01-22T13:13:17.560Z,5.00
2023-01-22T13:17:31.401Z,5.75
2023-01-22T13:21:44.591Z,5.55
2023-01-22T13:25:59.346Z,4.70
2023-01-22T13:30:21.433Z,4.50
2023-01-22T13:34:34.093Z,7.10
2023-01-22T13:38:57.657Z,8.55
2023-01-22T13:43:12.771Z,7.85
2023-01-22T13:47:36.524Z,4.90
2023-01-22T13:51:51.807Z,5.95
2023-01-22T13:56:04.923Z,4.60
2023-01-22T14:00:28.186Z,4.57
2023-01-22T14:04:40.946Z,5.00
2023-01-22T14:08:56.639Z,6.43
2023-01-22T14:13:12.489Z,5.53
2023-01-22T14:17:34.917Z,5.28
2023-01-22T14:21:47.378Z,6.40
2023-01-22T14:26:05.882Z,6.30
2023-01-22T14:30:29.181Z,6.43
2023-01-22T14:34:42.895Z,5.65
2023-01-22T14:38:56.205Z,5.68
2023-01-22T14:43:09.437Z,6.63
2023-01-22T14:47:32.027Z,6.53
2023-01-22T14:51:44.506Z,6.57
2023-01-22T14:55:58.355Z,5.72
2023-01-22T15:00:15.399Z,5.45
2023-01-22T15:04:27.858Z,5.35
2023-01-22T15:08:40.432Z,5.15
2023-01-22T15:13:03.099Z,6.32
2023-01-22T15:17:15.544Z,5.25
2023-01-22T15:21:28.180Z,5.35
2023-01-22T15:25:40.608Z,5.28
2023-01-22T15:29:53.026Z,5.20
2023-01-22T15:34:06.204Z,5.88
2023-01-22T15:38:18.898Z,5.13
2023-01-22T15:42:31.412Z,5.70
2023-01-22T15:46:44.441Z,5.88
2023-01-22T15:51:09.715Z,5.15
2023-01-22T15:55:23.135Z,5.53
2023-01-22T15:59:38.676Z,5.85
2023-01-22T16:03:51.874Z,4.65
2023-01-22T16:08:05.953Z,5.90
2023-01-22T16:12:19.128Z,6.55
2023-01-22T16:16:37.951Z,5.57
2023-01-22T16:20:50.486Z,6.40
2023-01-22T16:25:13.278Z,5.43
2023-01-22T16:29:25.994Z,5.95
2023-01-22T16:33:42.942Z,5.63
2023-01-22T16:37:55.402Z,6.13
2023-01-22T16:42:07.911Z,5.70
2023-01-22T16:46:22.913Z,5.68
2023-01-22T16:50:35.587Z,6.28
2023-01-22T16:54:48.786Z,7.20
2023-01-22T16:59:11.514Z,7.93
2023-01-22T17:03:23.952Z,7.13
2023-01-22T17:07:37.717Z,6.30
2023-01-22T17:12:04.975Z,7.22
2023-01-22T17:16:18.090Z,5.82
2023-01-22T17:20:31.099Z,5.90
2023-01-22T17:24:43.581Z,6.97
2023-01-22T17:28:56.614Z,6.75
2023-01-22T17:33:09.040Z,6.80
2023-01-22T17:37:21.469Z,6.57
2023-01-22T17:41:40.870Z,6.68
2023-01-22T17:45:54.643Z,6.25
2023-01-22T17:50:09.615Z,7.43
2023-01-22T17:54:22.136Z,7.53
2023-01-22T17:58:48.536Z,9.10
2023-01-22T18:03:01.582Z,7.80
2023-01-22T18:07:14.172Z,7.50
2023-01-22T18:11:30.267Z,7.45
2023-01-22T18:15:47.841Z,7.28
2023-01-22T18:20:00.317Z,8.00
2023-01-22T18:24:14.064Z,8.00
2023-01-22T18:28:28.041Z,8.48
2023-01-22T18:32:48.208Z,9.48
2023-01-22T18:37:03.621Z,17.50
2023-01-22T18:46:22.969Z,8.63
2023-01-22T18:50:35.673Z,8.75
2023-01-22T18:54:48.096Z,8.02
2023-01-22T18:59:01.164Z,7.45
2023-01-22T19:03:14.460Z,6.07
2023-01-22T19:07:26.901Z,6.00
2023-01-22T19:11:41.958Z,6.45
2023-01-22T19:15:54.626Z,6.50
2023-01-22T19:20:09.377Z,5.43
2023-01-22T19:24:25.092Z,7.05
2023-01-22T19:28:38.503Z,7.28
2023-01-22T19:32:57.838Z,6.65
2023-01-22T19:37:10.709Z,8.02
2023-01-22T19:41:24.244Z,6.18
2023-01-22T19:45:37.786Z,6.63
2023-01-22T19:49:50.256Z,7.50
2023-01-22T19:54:05.617Z,6.75
2023-01-22T19:58:18.078Z,6.20
2023-01-22T20:02:30.583Z,7.75
2023-01-22T20:06:45.964Z,6.75
2023-01-22T20:11:10.846Z,7.07
2023-01-22T20:15:26.667Z,7.13
2023-01-22T20:19:40.378Z,6.88
2023-01-22T20:23:53.081Z,6.70
2023-01-22T20:28:11.363Z,6.18
2023-01-22T20:32:23.801Z,4.57
2023-01-22T20:36:36.593Z,4.78
2023-01-22T20:40:49.334Z,4.97
2023-01-22T20:45:01.833Z,5.35
2023-01-22T20:49:15.813Z,4.97
2023-01-22T20:53:29.623Z,5.03
2023-01-22T20:57:47.175Z,5.07
2023-01-22T21:01:59.828Z,6.53
2023-01-22T21:06:22.747Z,4.55
2023-01-22T21:10:35.226Z,4.43
2023-01-22T21:14:47.683Z,4.72
2023-01-22T21:19:09.222Z,5.35
2023-01-22T21:23:21.696Z,5.00
2023-01-22T21:27:35.444Z,5.18
2023-01-22T21:31:51.096Z,5.32
2023-01-22T21:36:12.058Z,6.25
2023-01-22T21:40:24.777Z,6.53
2023-01-22T21:44:55.793Z,6.18
2023-01-22T21:49:17.319Z,5.57
2023-01-22T21:53:29.774Z,6.55
2023-01-22T21:57:42.535Z,5.25
2023-01-22T22:01:55.656Z,5.88
2023-01-22T22:06:09.718Z,6.60
2023-01-22T22:10:22.237Z,6.85
2023-01-22T22:14:35.018Z,8.05
2023-01-22T22:18:47.757Z,8.10
2023-01-22T22:23:01.477Z,6.95
2023-01-22T22:27:13.917Z,7.90
2023-01-22T22:31:26.904Z,6.13
2023-01-22T22:35:48.562Z,5.88
2023-01-22T22:40:00.993Z,7.78
2023-01-22T22:44:15.938Z,7.32
2023-01-22T22:48:28.662Z,5.85
2023-01-22T22:52:41.337Z,6.25
2023-01-22T22:56:54.064Z,7.22
2023-01-22T23:01:12.206Z,5.22
2023-01-22T23:05:24.755Z,5.93
2023-01-22T23:09:37.227Z,5.38
2023-01-22T23:14:02.405Z,4.85
2023-01-22T23:18:14.843Z,5.20
2023-01-22T23:22:27.306Z,4.85
2023-01-22T23:26:42.797Z,5.30
2023-01-22T23:30:56.154Z,5.40
2023-01-22T23:35:09.377Z,5.10
2023-01-22T23:39:31.705Z,4.75
2023-01-22T23:43:44.602Z,5.50
2023-01-22T23:47:57.331Z,4.05
2023-01-22T23:52:10.011Z,5.68
2023-01-22T23:56:32.631Z,3.85
